Time;durP1;ratioP1;P1;durP2;ratioP2;P2;SDS_P1;SDS_P2;PMS_P1;PMS_P2;Temp;Humidity;BMP_temperature;BMP_pressure;BME280_temperature;BME280_humidity;BME280_pressure;Samples;Min_cycle;Max_cycle;Signal;HPM_P1;HPM_P2
2022/03/02 00:01:55;;;;;;;13.27;9.90;;;;;;;;;;5020794;28;20195;-63
2022/03/02 00:04:21;;;;;;;13.17;10.23;;;;;;;;;;5019234;28;20742;-64
2022/03/02 00:06:46;;;;;;;11.97;8.90;;;;;;;;;;5019329;28;20298;-63
2022/03/02 00:09:12;;;;;;;13.37;9.60;;;;;;;;;;5017167;28;20654;-64
2022/03/02 00:11:38;;;;;;;15.27;9.47;;;;;;;;;;5032404;28;20215;-63
2022/03/02 00:14:05;;;;;;;13.07;9.40;;;;;;;;;;5033694;28;20299;-64
2022/03/02 00:16:31;;;;;;;13.53;9.63;;;;;;;;;;5031594;28;20191;-63
2022/03/02 00:18:57;;;;;;;13.73;9.97;;;;;;;;;;5019591;28;20203;-63
2022/03/02 00:21:23;;;;;;;13.53;9.53;;;;;;;;;;5025491;28;20192;-63
2022/03/02 00:23:49;;;;;;;12.77;9.13;;;;;;;;;;5045093;28;20282;-63
2022/03/02 00:26:15;;;;;;;13.90;10.17;;;;;;;;;;5048028;28;20304;-63
2022/03/02 00:28:41;;;;;;;14.57;9.70;;;;;;;;;;5022515;28;20195;-63
2022/03/02 00:31:08;;;;;;;13.07;9.73;;;;;;;;;;5022331;28;20196;-64
2022/03/02 00:33:34;;;;;;;12.07;9.30;;;;;;;;;;5035076;28;20325;-64
2022/03/02 00:36:00;;;;;;;14.43;8.90;;;;;;;;;;5035406;28;20192;-63
2022/03/02 00:38:26;;;;;;;12.40;9.60;;;;;;;;;;5038330;28;21936;-64
2022/03/02 00:40:52;;;;;;;12.77;9.30;;;;;;;;;;5042499;28;20180;-64
2022/03/02 00:43:17;;;;;;;11.80;9.20;;;;;;;;;;5044595;28;20196;-64
2022/03/02 00:45:43;;;;;;;12.23;8.87;;;;;;;;;;5039759;28;20196;-63
2022/03/02 00:48:09;;;;;;;11.80;8.50;;;;;;;;;;5025582;28;20234;-64
2022/03/02 00:50:36;;;;;;;13.10;9.07;;;;;;;;;;5014833;28;20188;-64
2022/03/02 00:53:02;;;;;;;10.70;8.77;;;;;;;;;;5008798;28;20719;-64
2022/03/02 00:55:28;;;;;;;13.97;9.80;;;;;;;;;;5006615;28;20584;-64
2022/03/02 00:57:54;;;;;;;14.20;9.07;;;;;;;;;;5026313;28;20249;-64
2022/03/02 01:00:20;;;;;;;13.53;9.40;;;;;;;;;;5026881;28;20196;-64
2022/03/02 01:02:46;;;;;;;12.20;9.57;;;;;;;;;;5026965;28;20205;-64
2022/03/02 01:05:12;;;;;;;12.77;8.63;;;;;;;;;;5029865;28;20322;-63
2022/03/02 01:07:38;;;;;;;16.93;8.80;;;;;;;;;;5034764;28;20287;-63
2022/03/02 01:10:04;;;;;;;11.97;9.00;;;;;;;;;;5035468;28;20543;-64
2022/03/02 01:12:30;;;;;;;13.23;9.13;;;;;;;;;;5013942;28;20911;-64
2022/03/02 01:14:56;;;;;;;14.20;9.07;;;;;;;;;;5029746;28;20198;-63
2022/03/02 01:17:22;;;;;;;13.47;9.20;;;;;;;;;;5030392;28;20187;-63
2022/03/02 01:19:48;;;;;;;11.90;8.47;;;;;;;;;;5038291;28;20284;-64
2022/03/02 01:22:14;;;;;;;14.20;9.10;;;;;;;;;;5038690;28;20191;-63
2022/03/02 01:24:40;;;;;;;13.37;8.47;;;;;;;;;;5016669;28;20192;-64
2022/03/02 01:27:06;;;;;;;13.67;9.00;;;;;;;;;;5030821;28;20196;-63
2022/03/02 01:29:34;;;;;;;12.43;9.33;;;;;;;;;;5033151;28;20199;-63
2022/03/02 01:32:01;;;;;;;12.07;8.77;;;;;;;;;;5032512;28;20207;-64
2022/03/02 01:34:27;;;;;;;13.10;8.83;;;;;;;;;;5032687;28;20620;-64
2022/03/02 01:36:53;;;;;;;14.13;8.90;;;;;;;;;;5035400;28;20195;-64
2022/03/02 01:39:19;;;;;;;14.53;9.40;;;;;;;;;;5029441;28;20216;-64
2022/03/02 01:41:45;;;;;;;10.53;8.10;;;;;;;;;;5038556;28;20684;-64
2022/03/02 01:44:11;;;;;;;13.77;8.83;;;;;;;;;;5035736;28;20196;-64
2022/03/02 01:46:37;;;;;;;13.67;8.63;;;;;;;;;;5032527;28;20215;-63
2022/03/02 01:49:03;;;;;;;12.27;8.60;;;;;;;;;;5032864;28;20720;-63
2022/03/02 01:51:29;;;;;;;12.33;9.07;;;;;;;;;;5036673;28;20192;-64
2022/03/02 01:53:55;;;;;;;12.80;9.30;;;;;;;;;;5032236;28;20227;-64
2022/03/02 01:56:21;;;;;;;14.00;9.33;;;;;;;;;;5031566;28;20221;-64
2022/03/02 01:58:47;;;;;;;12.90;8.30;;;;;;;;;;5025324;28;20299;-64
2022/03/02 02:03:49;;;;;;;12.37;7.93;;;;;;;;;;5494908;22;20307;-67
2022/03/02 02:06:15;;;;;;;14.90;9.57;;;;;;;;;;4978941;28;20577;-67
2022/03/02 02:08:41;;;;;;;11.80;8.43;;;;;;;;;;4980376;28;20204;-68
2022/03/02 02:11:08;;;;;;;12.57;8.37;;;;;;;;;;4982236;28;20197;-68
2022/03/02 02:13:34;;;;;;;12.07;8.43;;;;;;;;;;4986316;28;20344;-68
2022/03/02 02:16:01;;;;;;;12.47;8.57;;;;;;;;;;4998924;28;20292;-69
2022/03/02 02:18:27;;;;;;;13.40;8.70;;;;;;;;;;4999255;28;20201;-67
2022/03/02 02:20:53;;;;;;;11.53;8.13;;;;;;;;;;4997495;28;20240;-67
2022/03/02 02:23:19;;;;;;;11.97;8.20;;;;;;;;;;5002091;28;20200;-68
2022/03/02 02:25:45;;;;;;;11.63;8.30;;;;;;;;;;4995750;28;20263;-67
2022/03/02 02:28:11;;;;;;;10.93;8.00;;;;;;;;;;4995550;28;20272;-68
2022/03/02 02:30:38;;;;;;;11.13;8.03;;;;;;;;;;4977358;28;20198;-67
2022/03/02 02:33:04;;;;;;;12.30;8.53;;;;;;;;;;4977810;28;20209;-68
2022/03/02 02:35:29;;;;;;;14.30;8.40;;;;;;;;;;4996325;28;20307;-68
2022/03/02 02:37:55;;;;;;;11.90;8.43;;;;;;;;;;4997232;28;20284;-67
2022/03/02 02:40:22;;;;;;;10.57;8.00;;;;;;;;;;4980511;28;20268;-68
2022/03/02 02:42:48;;;;;;;11.10;8.27;;;;;;;;;;5004463;28;20198;-67
2022/03/02 02:45:15;;;;;;;11.83;8.10;;;;;;;;;;4984813;28;20834;-66
2022/03/02 02:47:41;;;;;;;11.40;8.33;;;;;;;;;;5002881;28;20184;-68
2022/03/02 02:50:34;;;;;;;11.40;8.10;;;;;;;;;;4999890;28;20279;-67
2022/03/02 02:53:01;;;;;;;11.53;8.27;;;;;;;;;;4997461;28;20234;-68
2022/03/02 02:55:28;;;;;;;10.23;7.87;;;;;;;;;;4999290;28;20207;-68
2022/03/02 02:57:54;;;;;;;11.53;8.37;;;;;;;;;;4988926;28;20185;-68
2022/03/02 03:00:20;;;;;;;10.27;8.00;;;;;;;;;;5002733;28;20197;-68
2022/03/02 03:02:50;;;;;;;12.33;8.13;;;;;;;;;;4989634;28;20746;-68
2022/03/02 03:05:17;;;;;;;10.63;8.03;;;;;;;;;;4985391;28;20211;-68
2022/03/02 03:07:43;;;;;;;11.73;8.17;;;;;;;;;;5005150;28;20787;-68
2022/03/02 03:10:10;;;;;;;10.50;7.67;;;;;;;;;;4978833;28;22220;-67
2022/03/02 03:12:36;;;;;;;11.67;7.53;;;;;;;;;;4993913;28;20235;-68
2022/03/02 03:15:06;;;;;;;11.50;8.30;;;;;;;;;;4991316;28;20662;-68
2022/03/02 03:17:32;;;;;;;10.77;7.97;;;;;;;;;;5002682;28;20829;-67
2022/03/02 03:19:58;;;;;;;10.63;8.27;;;;;;;;;;4987779;28;20207;-67
2022/03/02 03:22:24;;;;;;;10.50;8.03;;;;;;;;;;4997363;28;20201;-68
2022/03/02 03:24:50;;;;;;;11.27;8.13;;;;;;;;;;4996865;28;20222;-68
2022/03/02 03:27:16;;;;;;;9.87;7.70;;;;;;;;;;4981108;28;20200;-67
2022/03/02 03:29:42;;;;;;;11.27;8.27;;;;;;;;;;4996457;28;20476;-67
2022/03/02 03:32:08;;;;;;;12.63;8.67;;;;;;;;;;4997822;28;20286;-68
2022/03/02 03:34:34;;;;;;;10.77;8.80;;;;;;;;;;4994690;28;20604;-68
2022/03/02 03:36:59;;;;;;;10.57;8.50;;;;;;;;;;4997444;28;20200;-67
2022/03/02 03:39:26;;;;;;;12.63;8.40;;;;;;;;;;4982432;28;20224;-67
2022/03/02 03:41:52;;;;;;;12.53;8.00;;;;;;;;;;5008392;28;20292;-68
2022/03/02 03:44:18;;;;;;;12.60;8.40;;;;;;;;;;5001395;28;20203;-67
2022/03/02 03:46:44;;;;;;;10.17;7.73;;;;;;;;;;5008514;28;20197;-68
2022/03/02 03:49:10;;;;;;;12.20;8.67;;;;;;;;;;5002087;28;20327;-67
2022/03/02 03:51:36;;;;;;;12.00;7.93;;;;;;;;;;5004975;28;20278;-67
2022/03/02 03:54:02;;;;;;;10.40;7.87;;;;;;;;;;4997272;28;20803;-68
2022/03/02 03:56:30;;;;;;;12.37;8.57;;;;;;;;;;4995101;28;20194;-68
2022/03/02 03:58:56;;;;;;;9.07;7.60;;;;;;;;;;4992373;28;20581;-67
2022/03/02 04:01:22;;;;;;;9.83;7.77;;;;;;;;;;4990474;28;20581;-67
2022/03/02 04:03:48;;;;;;;12.00;8.30;;;;;;;;;;4989872;28;20242;-68
2022/03/02 04:06:14;;;;;;;13.90;8.10;;;;;;;;;;4975999;28;20201;-68
2022/03/02 04:08:40;;;;;;;12.20;7.83;;;;;;;;;;4986471;28;20709;-68
2022/03/02 04:11:06;;;;;;;11.20;8.20;;;;;;;;;;4988151;28;20203;-67
2022/03/02 04:13:32;;;;;;;13.17;8.17;;;;;;;;;;4987889;28;20304;-68
2022/03/02 04:15:58;;;;;;;10.27;7.87;;;;;;;;;;4986933;28;20186;-68
2022/03/02 04:18:24;;;;;;;11.37;7.60;;;;;;;;;;4982221;28;20200;-67
2022/03/02 04:20:52;;;;;;;11.43;8.37;;;;;;;;;;4986213;28;20204;-67
2022/03/02 04:23:18;;;;;;;14.77;8.10;;;;;;;;;;4986316;28;20788;-67
2022/03/02 04:25:44;;;;;;;11.43;8.10;;;;;;;;;;4986313;28;20204;-68
2022/03/02 04:28:10;;;;;;;11.77;8.33;;;;;;;;;;4987276;28;20204;-67
2022/03/02 04:30:36;;;;;;;11.60;8.43;;;;;;;;;;4973015;28;20272;-68
2022/03/02 04:33:03;;;;;;;14.70;8.43;;;;;;;;;;4985205;28;20653;-67
2022/03/02 04:35:29;;;;;;;13.13;7.90;;;;;;;;;;4995030;28;20208;-68
2022/03/02 04:37:55;;;;;;;13.20;8.60;;;;;;;;;;4995229;28;20222;-68
2022/03/02 04:40:21;;;;;;;9.93;7.73;;;;;;;;;;4980334;28;20631;-68
2022/03/02 04:42:47;;;;;;;13.07;7.93;;;;;;;;;;4997125;28;20216;-68
2022/03/02 04:45:13;;;;;;;10.90;7.60;;;;;;;;;;4992567;28;21776;-69
2022/03/02 04:47:39;;;;;;;12.13;8.27;;;;;;;;;;4985926;28;20617;-69
2022/03/02 04:50:05;;;;;;;10.40;7.90;;;;;;;;;;4976636;28;20435;-67
2022/03/02 04:52:31;;;;;;;10.87;7.23;;;;;;;;;;4971687;28;20225;-67
2022/03/02 04:55:06;;;;;;;10.83;7.40;;;;;;;;;;4964161;28;20856;-67
2022/03/02 04:57:33;;;;;;;13.43;7.53;;;;;;;;;;4985299;28;20189;-67
2022/03/02 04:59:59;;;;;;;9.93;7.63;;;;;;;;;;4977609;28;22490;-69
2022/03/02 05:02:24;;;;;;;11.70;8.43;;;;;;;;;;4997325;28;20196;-68
2022/03/02 05:04:50;;;;;;;12.30;7.80;;;;;;;;;;4966818;28;20232;-69
2022/03/02 05:07:17;;;;;;;13.90;7.73;;;;;;;;;;4970827;28;20185;-67
2022/03/02 05:09:44;;;;;;;11.07;8.07;;;;;;;;;;4977501;28;20292;-67
2022/03/02 05:12:10;;;;;;;12.97;7.90;;;;;;;;;;4982102;28;20185;-67
2022/03/02 05:14:36;;;;;;;9.33;7.33;;;;;;;;;;4973758;28;20283;-68
2022/03/02 05:17:02;;;;;;;10.83;8.00;;;;;;;;;;4984633;28;20291;-68
2022/03/02 05:19:28;;;;;;;10.50;7.67;;;;;;;;;;4985930;28;20197;-67
2022/03/02 05:21:54;;;;;;;11.63;7.87;;;;;;;;;;5001313;28;20196;-68
2022/03/02 05:24:20;;;;;;;11.03;8.20;;;;;;;;;;4980674;28;20723;-68
2022/03/02 05:26:46;;;;;;;10.53;7.47;;;;;;;;;;4991925;28;20565;-68
2022/03/02 05:29:12;;;;;;;11.43;8.03;;;;;;;;;;4986442;28;21297;-68
2022/03/02 05:31:38;;;;;;;13.20;8.30;;;;;;;;;;4989879;28;20698;-68
2022/03/02 05:34:04;;;;;;;11.27;7.40;;;;;;;;;;4986068;28;20208;-68
2022/03/02 05:36:30;;;;;;;11.73;8.10;;;;;;;;;;4980535;28;20251;-67
2022/03/02 05:38:56;;;;;;;11.47;8.27;;;;;;;;;;4982867;28;21816;-68
2022/03/02 05:41:22;;;;;;;13.47;8.03;;;;;;;;;;4991192;28;20886;-68
2022/03/02 05:43:48;;;;;;;12.83;8.10;;;;;;;;;;4982198;28;20202;-68
2022/03/02 05:46:14;;;;;;;12.53;7.97;;;;;;;;;;5000325;28;20197;-69
2022/03/02 05:48:40;;;;;;;11.33;8.13;;;;;;;;;;5000382;28;20740;-67
2022/03/02 05:51:06;;;;;;;11.40;8.10;;;;;;;;;;4979834;28;20202;-68
2022/03/02 05:53:32;;;;;;;11.37;7.63;;;;;;;;;;4998351;28;20227;-68
2022/03/02 05:55:58;;;;;;;11.07;8.10;;;;;;;;;;4993731;28;20193;-68
2022/03/02 05:58:25;;;;;;;11.20;7.80;;;;;;;;;;4974807;28;20196;-68
2022/03/02 06:00:51;;;;;;;11.63;7.80;;;;;;;;;;4992448;28;20289;-67
2022/03/02 06:03:19;;;;;;;11.50;8.10;;;;;;;;;;4980548;28;20241;-67
2022/03/02 06:05:44;;;;;;;11.40;8.10;;;;;;;;;;4982428;28;20204;-68
2022/03/02 06:08:10;;;;;;;12.53;8.20;;;;;;;;;;4972926;28;20219;-69
2022/03/02 06:10:37;;;;;;;14.37;7.93;;;;;;;;;;4973933;28;20684;-68
2022/03/02 06:13:03;;;;;;;10.60;7.40;;;;;;;;;;4956777;28;20217;-68
2022/03/02 06:15:30;;;;;;;14.73;8.93;;;;;;;;;;4975102;28;21864;-67
2022/03/02 06:17:56;;;;;;;14.23;8.43;;;;;;;;;;4968941;28;20320;-67
2022/03/02 06:20:22;;;;;;;14.13;8.97;;;;;;;;;;4982005;28;20201;-67
2022/03/02 06:22:48;;;;;;;15.33;8.80;;;;;;;;;;5002851;28;20772;-67
2022/03/02 06:25:14;;;;;;;12.30;8.80;;;;;;;;;;5007592;28;20221;-68
2022/03/02 06:27:40;;;;;;;11.57;8.40;;;;;;;;;;4986796;28;25039;-69
2022/03/02 06:30:06;;;;;;;11.20;8.20;;;;;;;;;;4962301;28;20231;-67
2022/03/02 06:32:34;;;;;;;10.07;8.10;;;;;;;;;;4976409;28;20223;-68
2022/03/02 06:34:59;;;;;;;10.60;7.87;;;;;;;;;;4975017;28;20641;-68
2022/03/02 06:37:26;;;;;;;12.73;7.83;;;;;;;;;;4966528;28;20193;-68
2022/03/02 06:39:52;;;;;;;11.50;8.40;;;;;;;;;;4980801;28;20185;-67
2022/03/02 06:42:19;;;;;;;11.30;8.57;;;;;;;;;;4987801;28;20205;-68
2022/03/02 06:44:49;;;;;;;10.00;8.17;;;;;;;;;;4995454;28;20201;-68
2022/03/02 06:47:15;;;;;;;9.60;7.30;;;;;;;;;;4991546;28;20681;-69
2022/03/02 06:50:10;;;;;;;10.47;8.10;;;;;;;;;;4976426;28;20276;-68
2022/03/02 06:52:37;;;;;;;10.83;8.07;;;;;;;;;;4978082;28;20240;-68
2022/03/02 06:55:04;;;;;;;11.47;7.93;;;;;;;;;;4989529;28;20197;-68
2022/03/02 06:57:30;;;;;;;12.80;8.73;;;;;;;;;;4972556;28;20196;-67
2022/03/02 07:00:26;;;;;;;10.87;8.27;;;;;;;;;;4989701;28;20192;-68
2022/03/02 07:02:53;;;;;;;11.50;8.23;;;;;;;;;;4971054;28;20370;-67
2022/03/02 07:05:19;;;;;;;11.40;7.87;;;;;;;;;;4971225;28;20591;-68
2022/03/02 07:07:45;;;;;;;11.30;8.37;;;;;;;;;;4971626;28;20204;-68
2022/03/02 07:10:11;;;;;;;12.03;8.20;;;;;;;;;;4976280;28;21292;-68
2022/03/02 07:12:38;;;;;;;13.67;9.00;;;;;;;;;;4989043;28;20303;-68
2022/03/02 07:15:04;;;;;;;15.80;9.20;;;;;;;;;;4990949;28;22425;-68
2022/03/02 07:17:32;;;;;;;12.60;8.37;;;;;;;;;;4996124;28;20855;-69
2022/03/02 07:19:58;;;;;;;12.47;8.93;;;;;;;;;;4990817;28;20253;-69
2022/03/02 07:22:24;;;;;;;12.20;7.90;;;;;;;;;;4979810;28;20570;-68
2022/03/02 07:24:54;;;;;;;11.00;8.10;;;;;;;;;;4987175;28;20209;-69
2022/03/02 07:27:20;;;;;;;12.13;8.27;;;;;;;;;;4986541;28;20224;-68
2022/03/02 07:29:49;;;;;;;12.23;8.77;;;;;;;;;;4994355;28;20209;-68
2022/03/02 07:32:15;;;;;;;13.93;8.37;;;;;;;;;;4993960;28;20205;-68
2022/03/02 07:34:41;;;;;;;12.43;8.60;;;;;;;;;;4994978;28;20200;-68
2022/03/02 07:37:09;;;;;;;13.40;9.10;;;;;;;;;;4966790;28;20610;-68
2022/03/02 07:39:35;;;;;;;10.10;7.93;;;;;;;;;;4992284;28;20212;-68
2022/03/02 07:42:01;;;;;;;13.83;8.63;;;;;;;;;;4992934;28;20220;-68
2022/03/02 07:44:27;;;;;;;13.77;8.60;;;;;;;;;;4996366;28;20309;-67
2022/03/02 07:46:53;;;;;;;12.27;8.47;;;;;;;;;;4993127;28;20194;-68
2022/03/02 07:49:20;;;;;;;14.37;9.13;;;;;;;;;;4996290;28;21676;-69
2022/03/02 07:51:46;;;;;;;12.70;8.63;;;;;;;;;;4994471;28;20301;-69
2022/03/02 07:54:12;;;;;;;12.00;9.13;;;;;;;;;;4996006;28;20309;-68
2022/03/02 07:56:37;;;;;;;12.33;8.47;;;;;;;;;;4997119;28;20291;-70
2022/03/02 07:59:05;;;;;;;14.60;8.43;;;;;;;;;;4980252;28;20193;-68
2022/03/02 08:01:32;;;;;;;11.10;8.60;;;;;;;;;;4980804;28;20193;-69
2022/03/02 08:03:58;;;;;;;12.27;8.57;;;;;;;;;;4971555;28;20765;-68
2022/03/02 08:06:24;;;;;;;11.40;8.67;;;;;;;;;;4992940;28;20201;-68
2022/03/02 08:08:51;;;;;;;15.17;9.70;;;;;;;;;;4976670;28;20204;-69
2022/03/02 08:11:17;;;;;;;12.70;9.73;;;;;;;;;;4993380;28;20459;-68
2022/03/02 08:13:42;;;;;;;15.17;9.67;;;;;;;;;;4972952;28;20424;-68
2022/03/02 08:16:08;;;;;;;11.53;9.80;;;;;;;;;;4989216;28;21016;-68
2022/03/02 08:18:35;;;;;;;13.20;9.60;;;;;;;;;;4976520;28;20764;-68
2022/03/02 08:21:01;;;;;;;14.43;9.65;;;;;;;;;;4991693;28;20966;-68
2022/03/02 08:23:34;;;;;;;11.82;9.20;;;;;;;;;;4975168;28;21127;-68
2022/03/02 08:26:00;;;;;;;13.30;9.27;;;;;;;;;;4976808;28;20496;-69
2022/03/02 08:28:26;;;;;;;11.77;9.35;;;;;;;;;;4991292;28;20423;-69
2022/03/02 08:30:53;;;;;;;13.05;9.48;;;;;;;;;;4993531;28;20474;-68
2022/03/02 08:33:20;;;;;;;12.88;9.18;;;;;;;;;;4976389;28;20427;-68
2022/03/02 08:35:46;;;;;;;12.52;9.10;;;;;;;;;;4990649;28;20512;-69
2022/03/02 08:38:12;;;;;;;11.95;9.10;;;;;;;;;;4970530;28;20429;-69
2022/03/02 08:40:38;;;;;;;10.10;8.57;;;;;;;;;;4987942;28;20418;-69
2022/03/02 08:43:06;;;;;;;11.93;8.47;;;;;;;;;;4987745;28;20274;-68
2022/03/02 08:45:32;;;;;;;16.33;8.90;;;;;;;;;;4983206;28;20197;-68
2022/03/02 08:48:03;;;;;;;9.83;8.40;;;;;;;;;;4978770;28;20295;-69
2022/03/02 08:50:29;;;;;;;14.07;8.53;;;;;;;;;;4977970;28;20361;-69
2022/03/02 08:52:56;;;;;;;10.53;8.13;;;;;;;;;;4975018;28;20575;-69
2022/03/02 08:55:22;;;;;;;10.60;7.83;;;;;;;;;;5002336;28;20280;-68
2022/03/02 08:57:49;;;;;;;10.37;8.23;;;;;;;;;;4987078;28;20213;-68
2022/03/02 09:00:15;;;;;;;10.87;8.03;;;;;;;;;;4972844;28;20185;-68
2022/03/02 09:02:41;;;;;;;10.10;8.43;;;;;;;;;;4970533;28;20213;-68
2022/03/02 09:05:07;;;;;;;11.13;8.50;;;;;;;;;;4960301;28;20213;-68
2022/03/02 09:07:34;;;;;;;11.07;8.43;;;;;;;;;;4977947;28;20225;-69
2022/03/02 09:10:00;;;;;;;10.93;8.63;;;;;;;;;;4991430;28;20195;-69
2022/03/02 09:12:26;;;;;;;10.10;8.20;;;;;;;;;;4990414;28;20696;-69
2022/03/02 09:14:52;;;;;;;9.17;7.80;;;;;;;;;;4976589;28;20197;-69
2022/03/02 09:17:24;;;;;;;10.90;8.30;;;;;;;;;;4986743;28;20595;-68
2022/03/02 09:19:50;;;;;;;11.37;8.20;;;;;;;;;;4976260;28;20559;-69
2022/03/02 09:22:17;;;;;;;8.73;7.37;;;;;;;;;;4967974;28;20197;-68
2022/03/02 09:24:43;;;;;;;7.83;7.10;;;;;;;;;;4972599;28;20193;-69
2022/03/02 09:27:09;;;;;;;9.30;7.03;;;;;;;;;;4973954;28;20198;-67
2022/03/02 09:29:36;;;;;;;8.07;7.07;;;;;;;;;;4989098;28;20194;-69
2022/03/02 09:32:03;;;;;;;8.47;7.57;;;;;;;;;;4974534;28;20661;-69
2022/03/02 09:34:29;;;;;;;7.87;7.07;;;;;;;;;;4966350;28;20220;-69
2022/03/02 09:36:56;;;;;;;8.90;7.17;;;;;;;;;;4994088;28;20276;-70
2022/03/02 09:39:23;;;;;;;11.13;7.23;;;;;;;;;;4982915;28;20193;-69
2022/03/02 09:41:51;;;;;;;8.10;7.03;;;;;;;;;;4975246;28;20293;-69
2022/03/02 09:44:19;;;;;;;8.20;6.93;;;;;;;;;;4973920;28;20211;-70
2022/03/02 09:46:48;;;;;;;8.63;6.57;;;;;;;;;;4957779;28;20650;-69
2022/03/02 09:49:14;;;;;;;8.13;6.63;;;;;;;;;;4993817;28;20276;-69
2022/03/02 09:51:41;;;;;;;7.90;6.77;;;;;;;;;;4990649;28;20189;-69
2022/03/02 09:54:08;;;;;;;7.33;6.57;;;;;;;;;;4972983;28;20225;-69
2022/03/02 09:56:35;;;;;;;11.10;6.57;;;;;;;;;;4975291;28;22307;-69
2022/03/02 09:59:01;;;;;;;8.20;6.57;;;;;;;;;;4991344;28;20197;-68
2022/03/02 10:01:27;;;;;;;8.20;6.27;;;;;;;;;;5001025;28;20938;-69
2022/03/02 10:03:54;;;;;;;7.00;5.90;;;;;;;;;;5003526;28;20252;-69
2022/03/02 10:06:20;;;;;;;8.57;6.37;;;;;;;;;;4987729;28;20239;-69
2022/03/02 10:08:50;;;;;;;6.73;5.60;;;;;;;;;;4991595;28;20205;-69
2022/03/02 10:11:18;;;;;;;8.67;6.40;;;;;;;;;;4964077;28;20232;-69
2022/03/02 10:13:45;;;;;;;6.43;5.73;;;;;;;;;;4992857;28;20284;-69
2022/03/02 10:16:10;;;;;;;7.07;6.00;;;;;;;;;;4992908;28;20190;-69
2022/03/02 10:18:36;;;;;;;6.63;6.03;;;;;;;;;;4977287;28;20228;-69
2022/03/02 10:21:03;;;;;;;7.37;6.67;;;;;;;;;;4977902;28;20189;-69
2022/03/02 10:23:42;;;;;;;8.53;6.33;;;;;;;;;;4973092;28;20200;-69
2022/03/02 10:26:15;;;;;;;7.53;6.30;;;;;;;;;;4987940;28;20750;-69
2022/03/02 10:28:50;;;;;;;7.17;6.47;;;;;;;;;;4989058;28;20201;-69
2022/03/02 10:31:35;;;;;;;6.47;5.87;;;;;;;;;;4988472;28;20196;-69
2022/03/02 10:34:20;;;;;;;7.10;6.00;;;;;;;;;;4991696;28;20902;-69
2022/03/02 10:36:46;;;;;;;6.60;6.00;;;;;;;;;;4991926;28;20817;-70
2022/03/02 10:39:38;;;;;;;7.03;6.18;;;;;;;;;;4979196;28;20193;-69
2022/03/02 10:42:05;;;;;;;7.18;6.50;;;;;;;;;;4987669;28;20309;-69
2022/03/02 10:44:44;;;;;;;7.28;6.57;;;;;;;;;;4978497;28;20203;-69
2022/03/02 10:47:10;;;;;;;8.23;6.78;;;;;;;;;;4961341;28;20212;-69
2022/03/02 10:49:36;;;;;;;7.10;6.50;;;;;;;;;;4977743;28;20193;-70
2022/03/02 10:52:03;;;;;;;6.82;6.00;;;;;;;;;;4975180;28;20196;-68
2022/03/02 10:54:29;;;;;;;7.18;6.57;;;;;;;;;;4983074;28;20220;-69
2022/03/02 10:56:55;;;;;;;6.50;5.88;;;;;;;;;;4989341;28;20196;-69
2022/03/02 10:59:22;;;;;;;7.07;6.30;;;;;;;;;;4990359;28;20193;-70
2022/03/02 11:01:49;;;;;;;7.00;5.93;;;;;;;;;;5004701;28;20716;-69
2022/03/02 11:04:15;;;;;;;6.95;6.15;;;;;;;;;;4984490;28;20678;-69
2022/03/02 11:06:41;;;;;;;6.22;5.63;;;;;;;;;;4981149;28;20185;-69
2022/03/02 11:09:07;;;;;;;7.70;5.60;;;;;;;;;;4982532;28;20645;-69
2022/03/02 11:11:35;;;;;;;6.47;5.88;;;;;;;;;;4980873;28;20192;-69
2022/03/02 11:14:01;;;;;;;7.28;6.20;;;;;;;;;;4978275;28;20220;-69
2022/03/02 11:16:27;;;;;;;6.75;5.65;;;;;;;;;;4979313;28;20699;-69
2022/03/02 11:18:53;;;;;;;8.02;6.35;;;;;;;;;;4994100;28;20197;-69
2022/03/02 11:21:21;;;;;;;7.90;5.63;;;;;;;;;;4994150;28;20216;-70
2022/03/02 11:23:51;;;;;;;5.90;5.32;;;;;;;;;;4979947;28;20185;-70
2022/03/02 11:26:23;;;;;;;6.45;5.85;;;;;;;;;;4993596;28;21673;-68
2022/03/02 11:28:49;;;;;;;7.63;5.80;;;;;;;;;;4999278;28;20659;-68
2022/03/02 11:31:26;;;;;;;6.28;5.78;;;;;;;;;;4978099;28;20244;-70
2022/03/02 11:33:52;;;;;;;6.70;6.00;;;;;;;;;;4996549;28;20673;-68
2022/03/02 11:36:18;;;;;;;6.68;5.93;;;;;;;;;;4982318;28;20666;-68
2022/03/02 11:38:47;;;;;;;6.90;6.00;;;;;;;;;;4993924;28;20196;-69
2022/03/02 11:41:13;;;;;;;7.47;5.97;;;;;;;;;;5007979;28;20196;-69
2022/03/02 11:43:39;;;;;;;6.35;5.75;;;;;;;;;;4989743;28;20314;-69
2022/03/02 11:46:06;;;;;;;6.15;5.55;;;;;;;;;;4996177;28;20961;-68
2022/03/02 11:48:34;;;;;;;6.78;6.13;;;;;;;;;;4979083;28;20692;-69
2022/03/02 11:51:18;;;;;;;6.28;5.72;;;;;;;;;;4994430;28;20914;-69
2022/03/02 11:53:44;;;;;;;6.45;5.85;;;;;;;;;;4980722;28;20204;-70
2022/03/02 11:56:12;;;;;;;6.07;5.57;;;;;;;;;;4998791;28;20193;-69
2022/03/02 11:58:57;;;;;;;5.70;5.20;;;;;;;;;;4978020;28;20194;-70
2022/03/02 12:01:23;;;;;;;5.97;5.47;;;;;;;;;;4972275;28;20616;-69
2022/03/02 12:03:59;;;;;;;6.88;5.72;;;;;;;;;;4982752;28;20276;-69
2022/03/02 12:06:26;;;;;;;6.13;5.55;;;;;;;;;;4988738;28;20244;-70
2022/03/02 12:08:53;;;;;;;6.53;5.22;;;;;;;;;;5005082;28;20632;-70
2022/03/02 12:11:25;;;;;;;6.22;5.38;;;;;;;;;;5004895;28;20603;-69
2022/03/02 12:14:07;;;;;;;5.72;5.22;;;;;;;;;;4996236;28;20361;-68
2022/03/02 12:16:44;;;;;;;5.35;4.85;;;;;;;;;;4977703;28;20208;-69
2022/03/02 12:19:19;;;;;;;6.35;5.70;;;;;;;;;;4981756;28;20192;-70
2022/03/02 12:21:45;;;;;;;7.70;5.35;;;;;;;;;;4983688;28;20190;-69
2022/03/02 12:24:12;;;;;;;5.90;5.40;;;;;;;;;;4993873;28;20574;-69
2022/03/02 12:26:39;;;;;;;5.90;5.35;;;;;;;;;;4994640;28;20197;-69
2022/03/02 12:29:08;;;;;;;6.10;5.53;;;;;;;;;;4990605;28;20578;-68
2022/03/02 12:31:34;;;;;;;6.40;5.80;;;;;;;;;;4997985;28;20201;-70
2022/03/02 12:34:01;;;;;;;6.35;5.65;;;;;;;;;;4999128;28;21341;-69
2022/03/02 12:36:27;;;;;;;6.22;5.60;;;;;;;;;;5007039;28;20232;-69
2022/03/02 12:38:53;;;;;;;5.50;5.00;;;;;;;;;;4996976;28;20756;-70
2022/03/02 12:41:19;;;;;;;6.03;5.45;;;;;;;;;;4972780;28;20199;-68
2022/03/02 12:43:44;;;;;;;6.00;5.07;;;;;;;;;;4992546;28;20201;-70
2022/03/02 12:46:10;;;;;;;5.80;5.30;;;;;;;;;;4973032;28;20196;-69
2022/03/02 12:48:36;;;;;;;6.03;5.47;;;;;;;;;;4989770;28;20554;-69
2022/03/02 12:51:02;;;;;;;6.03;5.53;;;;;;;;;;4967260;28;20656;-70
2022/03/02 12:53:28;;;;;;;5.65;5.05;;;;;;;;;;4973493;28;20236;-69
2022/03/02 12:55:54;;;;;;;5.75;5.20;;;;;;;;;;4973102;28;20335;-70
2022/03/02 12:58:21;;;;;;;5.78;5.30;;;;;;;;;;4995313;28;20190;-70
2022/03/02 13:00:47;;;;;;;5.00;4.47;;;;;;;;;;4976692;28;20201;-71
2022/03/02 13:03:14;;;;;;;5.28;4.70;;;;;;;;;;4970853;28;20232;-71
2022/03/02 13:05:41;;;;;;;7.05;4.38;;;;;;;;;;4975870;28;20201;-70
2022/03/02 13:08:26;;;;;;;4.90;4.50;;;;;;;;;;4990488;28;20190;-71
2022/03/02 13:10:52;;;;;;;4.22;3.83;;;;;;;;;;4995757;28;20222;-70
2022/03/02 13:13:51;;;;;;;4.43;4.03;;;;;;;;;;4993866;28;20221;-69
2022/03/02 13:16:20;;;;;;;5.80;4.30;;;;;;;;;;4942758;28;20606;-71
2022/03/02 13:18:46;;;;;;;5.72;4.03;;;;;;;;;;4993409;28;20498;-70
2022/03/02 13:21:23;;;;;;;10.00;6.43;;;;;;;;;;4976596;28;20186;-72
2022/03/02 13:24:09;;;;;;;9.38;6.57;;;;;;;;;;4985406;28;20201;-73
2022/03/02 13:26:36;;;;;;;7.78;7.07;;;;;;;;;;5002189;28;20725;-70
2022/03/02 13:29:11;;;;;;;7.93;7.20;;;;;;;;;;5010525;28;20190;-71
2022/03/02 13:31:53;;;;;;;9.07;7.30;;;;;;;;;;4993131;28;20198;-71
2022/03/02 13:34:19;;;;;;;7.25;6.65;;;;;;;;;;4991823;28;20217;-67
2022/03/02 13:36:49;;;;;;;7.93;7.13;;;;;;;;;;4973714;28;20189;-67
2022/03/02 13:39:31;;;;;;;6.97;6.38;;;;;;;;;;4977932;28;20186;-66
2022/03/02 13:41:57;;;;;;;7.40;6.75;;;;;;;;;;4987535;28;20268;-66
2022/03/02 13:44:26;;;;;;;7.43;6.83;;;;;;;;;;5004682;28;20205;-67
2022/03/02 13:47:08;;;;;;;8.23;6.83;;;;;;;;;;5001438;28;20745;-67
2022/03/02 13:49:53;;;;;;;7.63;6.93;;;;;;;;;;4999022;28;20732;-67
2022/03/02 13:52:28;;;;;;;7.80;7.00;;;;;;;;;;4990610;28;20318;-66
2022/03/02 13:54:55;;;;;;;8.77;6.00;;;;;;;;;;4989833;28;20216;-70
2022/03/02 13:57:21;;;;;;;7.10;6.07;;;;;;;;;;4977971;28;20460;-70
2022/03/02 13:59:47;;;;;;;6.80;6.10;;;;;;;;;;4978385;28;20547;-70
2022/03/02 14:02:13;;;;;;;5.63;5.07;;;;;;;;;;4996200;28;20186;-70
2022/03/02 14:04:43;;;;;;;7.27;6.57;;;;;;;;;;4988521;28;20248;-69
2022/03/02 14:07:09;;;;;;;8.47;6.90;;;;;;;;;;4989403;28;20186;-69
2022/03/02 14:09:35;;;;;;;7.33;6.60;;;;;;;;;;4993675;28;20814;-69
2022/03/02 14:12:04;;;;;;;8.37;6.73;;;;;;;;;;4994404;28;20212;-69
2022/03/02 14:14:32;;;;;;;7.60;6.90;;;;;;;;;;4978077;28;21151;-69
2022/03/02 14:16:59;;;;;;;9.03;6.83;;;;;;;;;;4994752;28;20289;-68
2022/03/02 14:19:25;;;;;;;6.87;6.23;;;;;;;;;;4972160;28;20197;-70
2022/03/02 14:21:58;;;;;;;6.30;5.70;;;;;;;;;;4974623;28;20351;-70
2022/03/02 14:24:25;;;;;;;7.00;6.30;;;;;;;;;;4991830;28;20193;-69
2022/03/02 14:26:59;;;;;;;6.63;6.00;;;;;;;;;;4977555;28;20956;-70
2022/03/02 14:29:25;;;;;;;7.67;5.80;;;;;;;;;;4973538;28;20193;-70
2022/03/02 14:32:11;;;;;;;7.70;5.90;;;;;;;;;;4991380;28;20218;-69
2022/03/02 14:34:50;;;;;;;6.33;5.73;;;;;;;;;;4989604;28;20287;-69
2022/03/02 14:37:18;;;;;;;6.93;5.60;;;;;;;;;;4977489;28;20193;-69
2022/03/02 14:40:00;;;;;;;6.27;5.67;;;;;;;;;;4980252;28;20197;-69
2022/03/02 14:42:26;;;;;;;6.87;5.67;;;;;;;;;;4991167;28;20185;-68